Kent, Illinois
Current Conditions -  °F | °C
As of 10:35 PM on Friday 24 Oct 2014 (Local Time) from KFEP Reporting Station
Overcast Overcast  
Wind Chill: 58°   Ceiling: 1300
Heat Index: 58°   Visibility: 10mi
Dew Point: 51°   Wind: 7mph
Humidity: 78%   Direction: 220°SW
Pressure: 29.95"   Gusts: NA
Location:  42.31°N, 89.9°W
Report Text: KFEP 250335Z AUTO 22006KT 10SM OVC013 14/11 A2995 RMK AO2 T01440106
Loading
Personal Weather Stations






























Interactive Weather Map
Tropical Storm Tracking
New forecast layout! Learn more

10-Day Weather Forecast

Advertisements
Track Severe Weather on mobile